sensor_id;sensor_type;location;lat;lon;timestamp;temperature;humidity
71367;DHT22;60030;52.274;8.040;2023-03-04T00:02:26;7.20;99.90
71367;DHT22;60030;52.274;8.040;2023-03-04T00:04:53;7.40;99.90
71367;DHT22;60030;52.274;8.040;2023-03-04T00:07:20;7.40;99.90
71367;DHT22;60030;52.274;8.040;2023-03-04T00:09:47;7.30;99.90
71367;DHT22;60030;52.274;8.040;2023-03-04T00:12:14;7.10;99.90
71367;DHT22;60030;52.274;8.040;2023-03-04T00:14:41;7.20;99.90
71367;DHT22;60030;52.274;8.040;2023-03-04T00:17:08;7.00;99.90
71367;DHT22;60030;52.274;8.040;2023-03-04T00:19:36;7.20;99.90
71367;DHT22;60030;52.274;8.040;2023-03-04T00:22:04;7.40;99.90
71367;DHT22;60030;52.274;8.040;2023-03-04T00:24:31;7.50;99.90
71367;DHT22;60030;52.274;8.040;2023-03-04T00:26:58;7.40;99.90
71367;DHT22;60030;52.274;8.040;2023-03-04T00:29:25;7.50;99.90
71367;DHT22;60030;52.274;8.040;2023-03-04T00:31:52;7.60;99.90
71367;DHT22;60030;52.274;8.040;2023-03-04T00:34:20;7.40;99.90
71367;DHT22;60030;52.274;8.040;2023-03-04T00:36:48;7.50;99.90
71367;DHT22;60030;52.274;8.040;2023-03-04T00:39:16;7.50;99.90
71367;DHT22;60030;52.274;8.040;2023-03-04T00:41:43;7.50;99.90
71367;DHT22;60030;52.274;8.040;2023-03-04T00:44:11;7.60;99.90
71367;DHT22;60030;52.274;8.040;2023-03-04T00:46:38;7.30;99.90
71367;DHT22;60030;52.274;8.040;2023-03-04T00:49:05;7.30;99.90
71367;DHT22;60030;52.274;8.040;2023-03-04T00:51:32;7.10;99.90
71367;DHT22;60030;52.274;8.040;2023-03-04T00:54:00;7.00;99.90
71367;DHT22;60030;52.274;8.040;2023-03-04T00:56:28;7.20;99.90
71367;DHT22;60030;52.274;8.040;2023-03-04T00:58:55;7.30;99.90
71367;DHT22;60030;52.274;8.040;2023-03-04T01:01:22;7.40;99.90
71367;DHT22;60030;52.274;8.040;2023-03-04T01:03:50;7.40;99.90
71367;DHT22;60030;52.274;8.040;2023-03-04T01:06:17;7.10;99.90
71367;DHT22;60030;52.274;8.040;2023-03-04T01:08:44;7.10;99.90
71367;DHT22;60030;52.274;8.040;2023-03-04T01:11:14;7.20;99.90
71367;DHT22;60030;52.274;8.040;2023-03-04T01:13:41;7.40;99.90
71367;DHT22;60030;52.274;8.040;2023-03-04T01:16:09;7.40;99.90
71367;DHT22;60030;52.274;8.040;2023-03-04T01:18:37;7.40;99.90
71367;DHT22;60030;52.274;8.040;2023-03-04T01:21:05;7.40;99.90
71367;DHT22;60030;52.274;8.040;2023-03-04T01:23:32;7.50;99.90
71367;DHT22;60030;52.274;8.040;2023-03-04T01:26:00;7.60;99.90
71367;DHT22;60030;52.274;8.040;2023-03-04T01:28:29;7.50;99.90
71367;DHT22;60030;52.274;8.040;2023-03-04T01:31:00;7.40;99.90
71367;DHT22;60030;52.274;8.040;2023-03-04T01:33:27;7.40;99.90
71367;DHT22;60030;52.274;8.040;2023-03-04T01:35:54;7.40;99.90
71367;DHT22;60030;52.274;8.040;2023-03-04T01:38:21;7.30;99.90
71367;DHT22;60030;52.274;8.040;2023-03-04T01:40:49;7.20;99.90
71367;DHT22;60030;52.274;8.040;2023-03-04T01:43:20;7.10;99.90
71367;DHT22;60030;52.274;8.040;2023-03-04T01:45:50;7.20;99.90
71367;DHT22;60030;52.274;8.040;2023-03-04T01:48:20;7.40;99.90
71367;DHT22;60030;52.274;8.040;2023-03-04T01:50:48;7.20;99.90
71367;DHT22;60030;52.274;8.040;2023-03-04T01:53:20;7.30;99.90
71367;DHT22;60030;52.274;8.040;2023-03-04T01:55:48;7.10;99.90
71367;DHT22;60030;52.274;8.040;2023-03-04T01:58:15;7.00;99.90
71367;DHT22;60030;52.274;8.040;2023-03-04T02:00:42;7.10;99.90
71367;DHT22;60030;52.274;8.040;2023-03-04T02:03:14;7.20;99.90
71367;DHT22;60030;52.274;8.040;2023-03-04T02:05:44;7.10;99.90
71367;DHT22;60030;52.274;8.040;2023-03-04T02:08:12;7.10;99.90
71367;DHT22;60030;52.274;8.040;2023-03-04T02:10:41;7.20;99.90
71367;DHT22;60030;52.274;8.040;2023-03-04T02:13:10;7.30;99.90
71367;DHT22;60030;52.274;8.040;2023-03-04T02:15:37;7.20;99.90
71367;DHT22;60030;52.274;8.040;2023-03-04T02:18:11;7.10;99.90
71367;DHT22;60030;52.274;8.040;2023-03-04T02:20:48;7.30;99.90
71367;DHT22;60030;52.274;8.040;2023-03-04T02:23:21;7.30;99.90
71367;DHT22;60030;52.274;8.040;2023-03-04T02:26:07;7.40;99.90
71367;DHT22;60030;52.274;8.040;2023-03-04T02:28:34;7.50;99.90
71367;DHT22;60030;52.274;8.040;2023-03-04T02:31:02;7.30;99.90
71367;DHT22;60030;52.274;8.040;2023-03-04T02:33:29;7.40;99.90
71367;DHT22;60030;52.274;8.040;2023-03-04T02:35:58;7.40;99.90
71367;DHT22;60030;52.274;8.040;2023-03-04T02:38:25;7.50;99.90
71367;DHT22;60030;52.274;8.040;2023-03-04T02:40:54;7.30;99.90
71367;DHT22;60030;52.274;8.040;2023-03-04T02:43:23;7.40;99.90
71367;DHT22;60030;52.274;8.040;2023-03-04T02:45:51;7.40;99.90
71367;DHT22;60030;52.274;8.040;2023-03-04T02:48:20;7.40;99.90
71367;DHT22;60030;52.274;8.040;2023-03-04T02:50:50;7.30;99.90
71367;DHT22;60030;52.274;8.040;2023-03-04T02:53:18;7.30;99.90
71367;DHT22;60030;52.274;8.040;2023-03-04T02:55:47;7.30;99.90
71367;DHT22;60030;52.274;8.040;2023-03-04T02:58:15;7.20;99.90
71367;DHT22;60030;52.274;8.040;2023-03-04T03:00:43;7.30;99.90
71367;DHT22;60030;52.274;8.040;2023-03-04T03:03:11;7.20;99.90
71367;DHT22;60030;52.274;8.040;2023-03-04T03:05:38;7.10;99.90
71367;DHT22;60030;52.274;8.040;2023-03-04T03:08:06;7.10;99.90
71367;DHT22;60030;52.274;8.040;2023-03-04T03:10:33;7.20;99.90
71367;DHT22;60030;52.274;8.040;2023-03-04T03:13:01;7.20;99.90
71367;DHT22;60030;52.274;8.040;2023-03-04T03:15:29;7.30;99.90
71367;DHT22;60030;52.274;8.040;2023-03-04T03:17:57;7.20;99.90
71367;DHT22;60030;52.274;8.040;2023-03-04T03:20:24;7.10;99.90
71367;DHT22;60030;52.274;8.040;2023-03-04T03:22:51;7.20;99.90
71367;DHT22;60030;52.274;8.040;2023-03-04T03:25:19;7.10;99.90
71367;DHT22;60030;52.274;8.040;2023-03-04T03:27:46;7.20;99.90
71367;DHT22;60030;52.274;8.040;2023-03-04T03:30:14;7.10;99.90
71367;DHT22;60030;52.274;8.040;2023-03-04T03:32:41;7.00;99.90
71367;DHT22;60030;52.274;8.040;2023-03-04T03:35:10;7.00;99.90
71367;DHT22;60030;52.274;8.040;2023-03-04T03:37:39;7.10;99.90
71367;DHT22;60030;52.274;8.040;2023-03-04T03:40:07;7.10;99.90
71367;DHT22;60030;52.274;8.040;2023-03-04T03:42:34;7.00;99.90
71367;DHT22;60030;52.274;8.040;2023-03-04T03:45:01;7.00;99.90
71367;DHT22;60030;52.274;8.040;2023-03-04T03:47:28;7.10;99.90
71367;DHT22;60030;52.274;8.040;2023-03-04T03:49:55;7.10;99.90
71367;DHT22;60030;52.274;8.040;2023-03-04T03:52:24;7.00;99.90
71367;DHT22;60030;52.274;8.040;2023-03-04T03:54:51;7.10;99.90
71367;DHT22;60030;52.274;8.040;2023-03-04T03:57:18;7.00;99.90
71367;DHT22;60030;52.274;8.040;2023-03-04T03:59:45;6.90;99.90
71367;DHT22;60030;52.274;8.040;2023-03-04T04:02:12;6.90;99.90
71367;DHT22;60030;52.274;8.040;2023-03-04T04:04:39;6.90;99.90
71367;DHT22;60030;52.274;8.040;2023-03-04T04:07:06;7.00;99.90
71367;DHT22;60030;52.274;8.040;2023-03-04T04:09:34;7.00;99.90
71367;DHT22;60030;52.274;8.040;2023-03-04T04:12:03;7.20;99.90
71367;DHT22;60030;52.274;8.040;2023-03-04T04:14:31;7.00;99.90
71367;DHT22;60030;52.274;8.040;2023-03-04T04:16:58;6.90;99.90
71367;DHT22;60030;52.274;8.040;2023-03-04T04:19:25;6.80;99.90
71367;DHT22;60030;52.274;8.040;2023-03-04T04:21:52;6.60;99.90
71367;DHT22;60030;52.274;8.040;2023-03-04T04:24:19;6.60;99.90
71367;DHT22;60030;52.274;8.040;2023-03-04T04:26:48;6.60;99.90
71367;DHT22;60030;52.274;8.040;2023-03-04T04:29:15;6.70;99.90
71367;DHT22;60030;52.274;8.040;2023-03-04T04:31:42;6.70;99.90
71367;DHT22;60030;52.274;8.040;2023-03-04T04:34:09;6.80;99.90
71367;DHT22;60030;52.274;8.040;2023-03-04T04:36:36;6.70;99.90
71367;DHT22;60030;52.274;8.040;2023-03-04T04:39:03;6.40;99.90
71367;DHT22;60030;52.274;8.040;2023-03-04T04:41:35;6.50;99.90
71367;DHT22;60030;52.274;8.040;2023-03-04T04:44:04;6.70;99.90
71367;DHT22;60030;52.274;8.040;2023-03-04T04:46:31;6.80;99.90
71367;DHT22;60030;52.274;8.040;2023-03-04T04:48:59;6.80;99.90
71367;DHT22;60030;52.274;8.040;2023-03-04T04:51:26;6.70;99.90
71367;DHT22;60030;52.274;8.040;2023-03-04T04:53:53;6.70;99.90
71367;DHT22;60030;52.274;8.040;2023-03-04T04:56:22;6.70;99.90
71367;DHT22;60030;52.274;8.040;2023-03-04T04:58:51;6.70;99.90
71367;DHT22;60030;52.274;8.040;2023-03-04T05:01:20;6.70;99.90
71367;DHT22;60030;52.274;8.040;2023-03-04T05:03:47;6.70;99.90
71367;DHT22;60030;52.274;8.040;2023-03-04T05:06:18;6.70;99.90
71367;DHT22;60030;52.274;8.040;2023-03-04T05:08:46;6.80;99.90
71367;DHT22;60030;52.274;8.040;2023-03-04T05:11:13;6.80;99.90
71367;DHT22;60030;52.274;8.040;2023-03-04T05:13:40;6.80;99.90
71367;DHT22;60030;52.274;8.040;2023-03-04T05:16:08;6.80;99.90
71367;DHT22;60030;52.274;8.040;2023-03-04T05:18:36;6.90;99.90
71367;DHT22;60030;52.274;8.040;2023-03-04T05:21:04;7.00;99.90
71367;DHT22;60030;52.274;8.040;2023-03-04T05:23:33;6.90;99.90
71367;DHT22;60030;52.274;8.040;2023-03-04T05:26:00;7.00;99.90
71367;DHT22;60030;52.274;8.040;2023-03-04T05:28:27;6.80;99.90
71367;DHT22;60030;52.274;8.040;2023-03-04T05:30:54;6.80;99.90
71367;DHT22;60030;52.274;8.040;2023-03-04T05:33:21;6.70;99.90
71367;DHT22;60030;52.274;8.040;2023-03-04T05:35:50;6.60;99.90
71367;DHT22;60030;52.274;8.040;2023-03-04T05:38:18;6.70;99.90
71367;DHT22;60030;52.274;8.040;2023-03-04T05:40:46;6.60;99.90
71367;DHT22;60030;52.274;8.040;2023-03-04T05:43:13;6.70;99.90
71367;DHT22;60030;52.274;8.040;2023-03-04T05:45:41;6.80;99.90
71367;DHT22;60030;52.274;8.040;2023-03-04T05:48:09;6.70;99.90
71367;DHT22;60030;52.274;8.040;2023-03-04T05:50:36;6.70;99.90
71367;DHT22;60030;52.274;8.040;2023-03-04T05:53:04;6.80;99.90
71367;DHT22;60030;52.274;8.040;2023-03-04T05:55:31;6.60;99.90
71367;DHT22;60030;52.274;8.040;2023-03-04T05:57:58;6.60;99.90
71367;DHT22;60030;52.274;8.040;2023-03-04T06:00:26;6.50;99.90
71367;DHT22;60030;52.274;8.040;2023-03-04T06:02:53;6.60;99.90
71367;DHT22;60030;52.274;8.040;2023-03-04T06:05:20;6.70;99.90
71367;DHT22;60030;52.274;8.040;2023-03-04T06:07:48;6.70;99.90
71367;DHT22;60030;52.274;8.040;2023-03-04T06:10:17;6.70;99.90
71367;DHT22;60030;52.274;8.040;2023-03-04T06:12:44;6.80;99.90
71367;DHT22;60030;52.274;8.040;2023-03-04T06:15:11;6.80;99.90
71367;DHT22;60030;52.274;8.040;2023-03-04T06:17:40;6.80;99.90
71367;DHT22;60030;52.274;8.040;2023-03-04T06:20:09;6.80;99.90
71367;DHT22;60030;52.274;8.040;2023-03-04T06:22:36;6.80;99.90
71367;DHT22;60030;52.274;8.040;2023-03-04T06:25:04;6.80;99.90
71367;DHT22;60030;52.274;8.040;2023-03-04T06:27:32;6.70;99.90
71367;DHT22;60030;52.274;8.040;2023-03-04T06:29:59;6.70;99.90
71367;DHT22;60030;52.274;8.040;2023-03-04T06:32:27;6.60;99.90
71367;DHT22;60030;52.274;8.040;2023-03-04T06:34:54;6.80;99.90
71367;DHT22;60030;52.274;8.040;2023-03-04T06:37:22;6.60;99.90
71367;DHT22;60030;52.274;8.040;2023-03-04T06:39:49;6.70;99.90
71367;DHT22;60030;52.274;8.040;2023-03-04T06:42:16;6.60;99.90
71367;DHT22;60030;52.274;8.040;2023-03-04T06:44:45;6.60;99.90
71367;DHT22;60030;52.274;8.040;2023-03-04T06:47:14;6.70;99.90
71367;DHT22;60030;52.274;8.040;2023-03-04T06:49:43;6.70;99.90
71367;DHT22;60030;52.274;8.040;2023-03-04T06:52:10;6.70;99.90
71367;DHT22;60030;52.274;8.040;2023-03-04T06:54:37;6.70;99.90
71367;DHT22;60030;52.274;8.040;2023-03-04T06:57:05;6.70;99.90
71367;DHT22;60030;52.274;8.040;2023-03-04T06:59:32;6.70;99.90
71367;DHT22;60030;52.274;8.040;2023-03-04T07:02:01;6.60;99.90
71367;DHT22;60030;52.274;8.040;2023-03-04T07:04:28;6.50;99.90
71367;DHT22;60030;52.274;8.040;2023-03-04T07:06:55;6.60;99.90
71367;DHT22;60030;52.274;8.040;2023-03-04T07:09:22;6.70;99.90
71367;DHT22;60030;52.274;8.040;2023-03-04T07:11:49;6.80;99.90
71367;DHT22;60030;52.274;8.040;2023-03-04T07:14:16;6.80;99.90
71367;DHT22;60030;52.274;8.040;2023-03-04T07:16:43;6.80;99.90
71367;DHT22;60030;52.274;8.040;2023-03-04T07:19:12;6.90;99.90
71367;DHT22;60030;52.274;8.040;2023-03-04T07:21:39;6.90;99.90
71367;DHT22;60030;52.274;8.040;2023-03-04T07:24:06;6.80;99.90
71367;DHT22;60030;52.274;8.040;2023-03-04T07:26:33;6.70;99.90
71367;DHT22;60030;52.274;8.040;2023-03-04T07:29:02;6.80;99.90
71367;DHT22;60030;52.274;8.040;2023-03-04T07:31:31;6.90;99.90
71367;DHT22;60030;52.274;8.040;2023-03-04T07:34:00;6.70;99.90
71367;DHT22;60030;52.274;8.040;2023-03-04T07:36:28;6.80;99.90
71367;DHT22;60030;52.274;8.040;2023-03-04T07:38:55;6.70;99.90
71367;DHT22;60030;52.274;8.040;2023-03-04T07:41:24;6.70;99.90
71367;DHT22;60030;52.274;8.040;2023-03-04T07:43:51;6.80;99.90
71367;DHT22;60030;52.274;8.040;2023-03-04T07:46:18;6.70;99.90
71367;DHT22;60030;52.274;8.040;2023-03-04T07:48:46;6.90;99.90
71367;DHT22;60030;52.274;8.040;2023-03-04T07:51:14;6.90;99.90
71367;DHT22;60030;52.274;8.040;2023-03-04T07:53:44;6.70;99.90
71367;DHT22;60030;52.274;8.040;2023-03-04T07:56:13;6.90;99.90
71367;DHT22;60030;52.274;8.040;2023-03-04T07:58:40;7.00;99.90
71367;DHT22;60030;52.274;8.040;2023-03-04T08:01:08;7.00;99.90
71367;DHT22;60030;52.274;8.040;2023-03-04T08:03:36;7.10;99.90
71367;DHT22;60030;52.274;8.040;2023-03-04T08:06:04;7.20;99.90
71367;DHT22;60030;52.274;8.040;2023-03-04T08:08:32;7.10;99.90
71367;DHT22;60030;52.274;8.040;2023-03-04T08:11:03;7.10;99.90
71367;DHT22;60030;52.274;8.040;2023-03-04T08:13:30;7.10;99.90
71367;DHT22;60030;52.274;8.040;2023-03-04T08:15:57;6.70;99.90
71367;DHT22;60030;52.274;8.040;2023-03-04T08:18:25;6.90;99.90
71367;DHT22;60030;52.274;8.040;2023-03-04T08:20:52;6.90;99.90
71367;DHT22;60030;52.274;8.040;2023-03-04T08:23:19;7.10;99.90
71367;DHT22;60030;52.274;8.040;2023-03-04T08:25:47;7.10;99.90
71367;DHT22;60030;52.274;8.040;2023-03-04T08:28:15;7.00;99.90
71367;DHT22;60030;52.274;8.040;2023-03-04T08:30:43;7.10;99.90
71367;DHT22;60030;52.274;8.040;2023-03-04T08:33:10;7.10;99.90
71367;DHT22;60030;52.274;8.040;2023-03-04T08:35:38;7.20;99.90
71367;DHT22;60030;52.274;8.040;2023-03-04T08:38:06;7.20;99.90
71367;DHT22;60030;52.274;8.040;2023-03-04T08:40:33;7.00;99.90
71367;DHT22;60030;52.274;8.040;2023-03-04T08:43:00;7.00;99.90
71367;DHT22;60030;52.274;8.040;2023-03-04T08:45:28;7.00;99.90
71367;DHT22;60030;52.274;8.040;2023-03-04T08:47:55;7.20;99.90
71367;DHT22;60030;52.274;8.040;2023-03-04T08:50:22;7.20;99.90
71367;DHT22;60030;52.274;8.040;2023-03-04T08:52:49;7.20;99.90
71367;DHT22;60030;52.274;8.040;2023-03-04T08:55:16;7.20;99.90
71367;DHT22;60030;52.274;8.040;2023-03-04T08:57:43;7.00;99.90
71367;DHT22;60030;52.274;8.040;2023-03-04T09:00:11;7.10;99.90
71367;DHT22;60030;52.274;8.040;2023-03-04T09:02:40;7.20;99.90
71367;DHT22;60030;52.274;8.040;2023-03-04T09:05:08;7.10;99.90
71367;DHT22;60030;52.274;8.040;2023-03-04T09:07:35;7.20;99.90
71367;DHT22;60030;52.274;8.040;2023-03-04T09:10:02;7.20;99.90
71367;DHT22;60030;52.274;8.040;2023-03-04T09:12:29;7.20;99.90
71367;DHT22;60030;52.274;8.040;2023-03-04T09:14:56;7.20;99.90
71367;DHT22;60030;52.274;8.040;2023-03-04T09:17:24;7.40;99.90
71367;DHT22;60030;52.274;8.040;2023-03-04T09:19:52;7.30;99.90
71367;DHT22;60030;52.274;8.040;2023-03-04T09:22:19;7.20;99.90
71367;DHT22;60030;52.274;8.040;2023-03-04T09:24:46;7.20;99.90
71367;DHT22;60030;52.274;8.040;2023-03-04T09:27:13;7.20;99.90
71367;DHT22;60030;52.274;8.040;2023-03-04T09:29:41;7.40;99.90
71367;DHT22;60030;52.274;8.040;2023-03-04T09:32:09;7.50;99.90
71367;DHT22;60030;52.274;8.040;2023-03-04T09:34:36;7.70;99.90
71367;DHT22;60030;52.274;8.040;2023-03-04T09:37:04;7.90;99.90
71367;DHT22;60030;52.274;8.040;2023-03-04T09:39:31;8.10;99.90
71367;DHT22;60030;52.274;8.040;2023-03-04T09:41:59;8.10;99.90
71367;DHT22;60030;52.274;8.040;2023-03-04T09:44:29;8.00;99.90
71367;DHT22;60030;52.274;8.040;2023-03-04T09:46:59;7.60;99.90
71367;DHT22;60030;52.274;8.040;2023-03-04T09:49:27;7.50;99.90
71367;DHT22;60030;52.274;8.040;2023-03-04T09:52:00;7.50;99.90
71367;DHT22;60030;52.274;8.040;2023-03-04T09:57:24;8.00;99.90
71367;DHT22;60030;52.274;8.040;2023-03-04T10:00:02;7.90;99.90
71367;DHT22;60030;52.274;8.040;2023-03-04T10:02:44;8.30;99.90
71367;DHT22;60030;52.274;8.040;2023-03-04T10:05:15;8.40;99.90
71367;DHT22;60030;52.274;8.040;2023-03-04T10:07:47;8.50;99.90
71367;DHT22;60030;52.274;8.040;2023-03-04T10:10:21;8.80;99.90
71367;DHT22;60030;52.274;8.040;2023-03-04T10:12:50;8.70;99.90
71367;DHT22;60030;52.274;8.040;2023-03-04T10:15:23;8.80;99.90
71367;DHT22;60030;52.274;8.040;2023-03-04T10:17:58;8.90;99.90
71367;DHT22;60030;52.274;8.040;2023-03-04T10:20:31;9.00;99.90
71367;DHT22;60030;52.274;8.040;2023-03-04T10:23:09;9.10;99.90
71367;DHT22;60030;52.274;8.040;2023-03-04T10:25:40;9.20;99.90
71367;DHT22;60030;52.274;8.040;2023-03-04T10:28:14;9.20;99.90
71367;DHT22;60030;52.274;8.040;2023-03-04T10:30:48;9.30;99.90
71367;DHT22;60030;52.274;8.040;2023-03-04T10:33:18;9.10;99.90
71367;DHT22;60030;52.274;8.040;2023-03-04T10:35:47;9.20;99.90
71367;DHT22;60030;52.274;8.040;2023-03-04T10:38:18;9.00;99.90
71367;DHT22;60030;52.274;8.040;2023-03-04T10:40:47;9.10;99.90
71367;DHT22;60030;52.274;8.040;2023-03-04T10:43:16;9.00;99.90
71367;DHT22;60030;52.274;8.040;2023-03-04T10:45:44;9.10;99.90
71367;DHT22;60030;52.274;8.040;2023-03-04T10:48:23;8.70;99.90
71367;DHT22;60030;52.274;8.040;2023-03-04T10:50:50;8.80;99.90
71367;DHT22;60030;52.274;8.040;2023-03-04T10:53:27;8.80;99.90
71367;DHT22;60030;52.274;8.040;2023-03-04T10:55:59;8.70;99.90
71367;DHT22;60030;52.274;8.040;2023-03-04T10:58:27;8.80;99.90
71367;DHT22;60030;52.274;8.040;2023-03-04T11:01:03;8.70;99.90
71367;DHT22;60030;52.274;8.040;2023-03-04T11:03:33;8.70;99.90
71367;DHT22;60030;52.274;8.040;2023-03-04T11:06:18;8.60;99.90
71367;DHT22;60030;52.274;8.040;2023-03-04T11:08:53;9.00;99.90
71367;DHT22;60030;52.274;8.040;2023-03-04T11:11:24;9.00;99.90
71367;DHT22;60030;52.274;8.040;2023-03-04T11:13:54;8.80;99.90
71367;DHT22;60030;52.274;8.040;2023-03-04T11:16:26;9.10;99.90
71367;DHT22;60030;52.274;8.040;2023-03-04T11:18:58;9.20;99.90
71367;DHT22;60030;52.274;8.040;2023-03-04T11:21:29;9.20;99.90
71367;DHT22;60030;52.274;8.040;2023-03-04T11:24:00;9.30;99.90
71367;DHT22;60030;52.274;8.040;2023-03-04T11:26:33;9.10;99.90
71367;DHT22;60030;52.274;8.040;2023-03-04T11:29:07;9.20;99.90
71367;DHT22;60030;52.274;8.040;2023-03-04T11:31:42;9.50;99.90
71367;DHT22;60030;52.274;8.040;2023-03-04T11:34:16;9.50;99.90
71367;DHT22;60030;52.274;8.040;2023-03-04T11:36:53;9.60;99.90
71367;DHT22;60030;52.274;8.040;2023-03-04T11:39:28;9.70;99.90
71367;DHT22;60030;52.274;8.040;2023-03-04T11:42:03;9.90;99.90
71367;DHT22;60030;52.274;8.040;2023-03-04T11:44:31;9.70;99.90
71367;DHT22;60030;52.274;8.040;2023-03-04T11:50:21;9.00;99.90
71367;DHT22;60030;52.274;8.040;2023-03-04T11:56:14;8.90;99.90
71367;DHT22;60030;52.274;8.040;2023-03-04T11:59:07;9.00;99.90
71367;DHT22;60030;52.274;8.040;2023-03-04T12:01:43;8.90;99.90
71367;DHT22;60030;52.274;8.040;2023-03-04T12:04:23;8.80;99.90
71367;DHT22;60030;52.274;8.040;2023-03-04T12:07:21;9.10;99.90
71367;DHT22;60030;52.274;8.040;2023-03-04T12:10:03;9.20;99.90
71367;DHT22;60030;52.274;8.040;2023-03-04T12:12:44;9.30;99.90
71367;DHT22;60030;52.274;8.040;2023-03-04T12:15:21;9.60;99.90
71367;DHT22;60030;52.274;8.040;2023-03-04T12:18:04;9.90;99.90
71367;DHT22;60030;52.274;8.040;2023-03-04T12:20:48;9.70;99.90
71367;DHT22;60030;52.274;8.040;2023-03-04T12:23:39;9.80;99.90
71367;DHT22;60030;52.274;8.040;2023-03-04T12:26:20;10.20;99.90
71367;DHT22;60030;52.274;8.040;2023-03-04T12:28:56;10.70;99.90
71367;DHT22;60030;52.274;8.040;2023-03-04T12:31:33;11.00;99.90
71367;DHT22;60030;52.274;8.040;2023-03-04T12:34:29;10.80;99.90
71367;DHT22;60030;52.274;8.040;2023-03-04T12:37:23;10.40;99.90
71367;DHT22;60030;52.274;8.040;2023-03-04T12:40:17;10.10;99.90
71367;DHT22;60030;52.274;8.040;2023-03-04T12:43:02;10.00;99.90
71367;DHT22;60030;52.274;8.040;2023-03-04T12:45:40;10.20;99.90
71367;DHT22;60030;52.274;8.040;2023-03-04T12:48:19;10.20;99.90
71367;DHT22;60030;52.274;8.040;2023-03-04T12:50:54;10.50;99.90
71367;DHT22;60030;52.274;8.040;2023-03-04T12:53:29;10.70;99.90
71367;DHT22;60030;52.274;8.040;2023-03-04T12:55:59;11.00;99.90
71367;DHT22;60030;52.274;8.040;2023-03-04T12:58:29;11.00;99.90
71367;DHT22;60030;52.274;8.040;2023-03-04T13:01:04;11.10;99.90
71367;DHT22;60030;52.274;8.040;2023-03-04T13:03:40;10.30;99.90
71367;DHT22;60030;52.274;8.040;2023-03-04T13:06:18;10.10;99.90
71367;DHT22;60030;52.274;8.040;2023-03-04T13:08:57;10.20;99.90
71367;DHT22;60030;52.274;8.040;2023-03-04T13:11:53;10.10;99.90
71367;DHT22;60030;52.274;8.040;2023-03-04T13:14:32;10.30;99.90
71367;DHT22;60030;52.274;8.040;2023-03-04T13:17:01;10.20;99.90
71367;DHT22;60030;52.274;8.040;2023-03-04T13:19:47;9.90;99.90
71367;DHT22;60030;52.274;8.040;2023-03-04T13:22:44;9.90;99.90
71367;DHT22;60030;52.274;8.040;2023-03-04T13:25:33;10.20;99.90
71367;DHT22;60030;52.274;8.040;2023-03-04T13:28:26;10.10;99.90
71367;DHT22;60030;52.274;8.040;2023-03-04T13:31:13;10.20;99.90
71367;DHT22;60030;52.274;8.040;2023-03-04T13:33:53;10.50;99.90
71367;DHT22;60030;52.274;8.040;2023-03-04T13:39:27;10.40;99.90
71367;DHT22;60030;52.274;8.040;2023-03-04T13:41:55;11.00;99.90
71367;DHT22;60030;52.274;8.040;2023-03-04T13:47:43;10.00;99.90
71367;DHT22;60030;52.274;8.040;2023-03-04T13:50:31;10.20;99.90
71367;DHT22;60030;52.274;8.040;2023-03-04T13:53:28;10.90;99.90
71367;DHT22;60030;52.274;8.040;2023-03-04T13:56:22;10.70;99.90
71367;DHT22;60030;52.274;8.040;2023-03-04T13:58:51;10.70;99.90
71367;DHT22;60030;52.274;8.040;2023-03-04T14:01:25;10.30;99.90
71367;DHT22;60030;52.274;8.040;2023-03-04T14:03:52;9.90;99.90
71367;DHT22;60030;52.274;8.040;2023-03-04T14:06:21;9.60;99.90
71367;DHT22;60030;52.274;8.040;2023-03-04T14:08:49;9.80;99.90
71367;DHT22;60030;52.274;8.040;2023-03-04T14:11:33;9.60;99.90
71367;DHT22;60030;52.274;8.040;2023-03-04T14:14:04;9.50;99.90
71367;DHT22;60030;52.274;8.040;2023-03-04T14:16:36;9.60;99.90
71367;DHT22;60030;52.274;8.040;2023-03-04T14:19:06;9.60;99.90
71367;DHT22;60030;52.274;8.040;2023-03-04T14:21:34;9.60;99.90
71367;DHT22;60030;52.274;8.040;2023-03-04T14:24:05;9.60;99.90
71367;DHT22;60030;52.274;8.040;2023-03-04T14:26:34;9.70;99.90
71367;DHT22;60030;52.274;8.040;2023-03-04T14:29:01;9.70;99.90
71367;DHT22;60030;52.274;8.040;2023-03-04T14:31:30;9.70;99.90
71367;DHT22;60030;52.274;8.040;2023-03-04T14:34:00;9.40;99.90
71367;DHT22;60030;52.274;8.040;2023-03-04T14:36:30;9.20;99.90
71367;DHT22;60030;52.274;8.040;2023-03-04T14:39:00;9.70;99.90
71367;DHT22;60030;52.274;8.040;2023-03-04T14:41:32;9.30;99.90
71367;DHT22;60030;52.274;8.040;2023-03-04T14:44:06;9.30;99.90
71367;DHT22;60030;52.274;8.040;2023-03-04T14:46:37;9.30;99.90
71367;DHT22;60030;52.274;8.040;2023-03-04T14:49:09;9.50;99.90
71367;DHT22;60030;52.274;8.040;2023-03-04T14:51:44;9.20;99.90
71367;DHT22;60030;52.274;8.040;2023-03-04T14:54:27;9.10;99.90
71367;DHT22;60030;52.274;8.040;2023-03-04T14:56:54;9.00;99.90
71367;DHT22;60030;52.274;8.040;2023-03-04T14:59:31;9.10;99.90
71367;DHT22;60030;52.274;8.040;2023-03-04T15:02:29;9.10;99.90
71367;DHT22;60030;52.274;8.040;2023-03-04T15:05:07;9.10;99.90
71367;DHT22;60030;52.274;8.040;2023-03-04T15:07:36;8.90;99.90
71367;DHT22;60030;52.274;8.040;2023-03-04T15:10:06;9.10;99.90
71367;DHT22;60030;52.274;8.040;2023-03-04T15:12:35;8.90;99.90
71367;DHT22;60030;52.274;8.040;2023-03-04T15:15:32;9.00;99.90
71367;DHT22;60030;52.274;8.040;2023-03-04T15:18:00;8.70;99.90
71367;DHT22;60030;52.274;8.040;2023-03-04T15:20:30;8.50;99.90
71367;DHT22;60030;52.274;8.040;2023-03-04T15:23:01;8.50;99.90
71367;DHT22;60030;52.274;8.040;2023-03-04T15:25:29;8.50;99.90
71367;DHT22;60030;52.274;8.040;2023-03-04T15:27:56;8.60;99.90
71367;DHT22;60030;52.274;8.040;2023-03-04T15:30:27;8.60;99.90
71367;DHT22;60030;52.274;8.040;2023-03-04T15:32:55;8.50;99.90
71367;DHT22;60030;52.274;8.040;2023-03-04T15:35:26;8.00;99.90
71367;DHT22;60030;52.274;8.040;2023-03-04T15:37:54;7.70;99.90
71367;DHT22;60030;52.274;8.040;2023-03-04T15:40:26;8.10;99.90
71367;DHT22;60030;52.274;8.040;2023-03-04T15:42:54;8.10;99.90
71367;DHT22;60030;52.274;8.040;2023-03-04T15:45:25;8.00;99.90
71367;DHT22;60030;52.274;8.040;2023-03-04T15:47:52;8.20;99.90
71367;DHT22;60030;52.274;8.040;2023-03-04T15:50:20;8.10;99.90
71367;DHT22;60030;52.274;8.040;2023-03-04T15:52:47;8.10;99.90
71367;DHT22;60030;52.274;8.040;2023-03-04T15:55:16;8.10;99.90
71367;DHT22;60030;52.274;8.040;2023-03-04T15:57:45;8.20;99.90
71367;DHT22;60030;52.274;8.040;2023-03-04T16:00:14;8.20;99.90
71367;DHT22;60030;52.274;8.040;2023-03-04T16:02:43;8.20;99.90
71367;DHT22;60030;52.274;8.040;2023-03-04T16:05:11;8.30;99.90
71367;DHT22;60030;52.274;8.040;2023-03-04T16:07:41;8.10;99.90
71367;DHT22;60030;52.274;8.040;2023-03-04T16:10:16;8.20;99.90
71367;DHT22;60030;52.274;8.040;2023-03-04T16:12:44;8.10;99.90
71367;DHT22;60030;52.274;8.040;2023-03-04T16:15:16;8.20;99.90
71367;DHT22;60030;52.274;8.040;2023-03-04T16:17:45;8.30;99.90
71367;DHT22;60030;52.274;8.040;2023-03-04T16:20:14;8.20;99.90
71367;DHT22;60030;52.274;8.040;2023-03-04T16:22:42;8.10;99.90